sensor_id;sensor_type;location;lat;lon;timestamp;P1;durP1;ratioP1;P2;durP2;ratioP2
57441;SDS011;43284;47.042;15.498;2023-04-25T00:01:37;6.70;;;3.92;;
57441;SDS011;43284;47.042;15.498;2023-04-25T00:04:03;5.10;;;3.65;;
57441;SDS011;43284;47.042;15.498;2023-04-25T00:06:31;6.93;;;4.07;;
57441;SDS011;43284;47.042;15.498;2023-04-25T00:08:57;10.40;;;4.10;;
57441;SDS011;43284;47.042;15.498;2023-04-25T00:11:23;6.10;;;3.97;;
57441;SDS011;43284;47.042;15.498;2023-04-25T00:13:48;6.50;;;4.38;;
57441;SDS011;43284;47.042;15.498;2023-04-25T00:16:15;10.45;;;4.68;;
57441;SDS011;43284;47.042;15.498;2023-04-25T00:18:42;7.43;;;4.22;;
57441;SDS011;43284;47.042;15.498;2023-04-25T00:21:08;5.18;;;3.85;;
57441;SDS011;43284;47.042;15.498;2023-04-25T00:23:33;11.18;;;4.38;;
57441;SDS011;43284;47.042;15.498;2023-04-25T00:26:01;6.55;;;4.15;;
57441;SDS011;43284;47.042;15.498;2023-04-25T00:28:27;7.90;;;3.83;;
57441;SDS011;43284;47.042;15.498;2023-04-25T00:30:52;10.95;;;4.32;;
57441;SDS011;43284;47.042;15.498;2023-04-25T00:33:18;9.82;;;4.22;;
57441;SDS011;43284;47.042;15.498;2023-04-25T00:35:43;7.18;;;4.43;;
57441;SDS011;43284;47.042;15.498;2023-04-25T00:38:09;6.00;;;4.20;;
57441;SDS011;43284;47.042;15.498;2023-04-25T00:40:34;8.18;;;4.15;;
57441;SDS011;43284;47.042;15.498;2023-04-25T00:43:00;11.05;;;3.95;;
57441;SDS011;43284;47.042;15.498;2023-04-25T00:45:29;11.23;;;4.38;;
57441;SDS011;43284;47.042;15.498;2023-04-25T00:47:55;10.25;;;4.05;;
57441;SDS011;43284;47.042;15.498;2023-04-25T00:50:21;6.55;;;4.00;;
57441;SDS011;43284;47.042;15.498;2023-04-25T00:52:47;7.63;;;3.97;;
57441;SDS011;43284;47.042;15.498;2023-04-25T00:55:13;5.30;;;3.75;;
57441;SDS011;43284;47.042;15.498;2023-04-25T00:57:40;6.20;;;4.28;;
57441;SDS011;43284;47.042;15.498;2023-04-25T01:00:07;5.88;;;3.90;;
57441;SDS011;43284;47.042;15.498;2023-04-25T01:02:34;7.78;;;4.15;;
57441;SDS011;43284;47.042;15.498;2023-04-25T01:05:00;11.18;;;4.20;;
57441;SDS011;43284;47.042;15.498;2023-04-25T01:07:26;8.38;;;3.85;;
57441;SDS011;43284;47.042;15.498;2023-04-25T01:09:52;5.18;;;3.47;;
57441;SDS011;43284;47.042;15.498;2023-04-25T01:12:17;9.80;;;4.45;;
57441;SDS011;43284;47.042;15.498;2023-04-25T01:14:43;7.22;;;4.45;;
57441;SDS011;43284;47.042;15.498;2023-04-25T01:17:10;5.60;;;3.60;;
57441;SDS011;43284;47.042;15.498;2023-04-25T01:19:35;5.30;;;3.38;;
57441;SDS011;43284;47.042;15.498;2023-04-25T01:22:01;7.90;;;4.13;;
57441;SDS011;43284;47.042;15.498;2023-04-25T01:24:27;8.30;;;4.43;;
57441;SDS011;43284;47.042;15.498;2023-04-25T01:26:53;6.32;;;4.07;;
57441;SDS011;43284;47.042;15.498;2023-04-25T01:29:21;11.07;;;4.10;;
57441;SDS011;43284;47.042;15.498;2023-04-25T01:31:47;6.43;;;3.85;;
57441;SDS011;43284;47.042;15.498;2023-04-25T01:34:13;5.95;;;4.13;;
57441;SDS011;43284;47.042;15.498;2023-04-25T01:36:39;7.03;;;3.08;;
57441;SDS011;43284;47.042;15.498;2023-04-25T01:39:05;7.10;;;3.38;;
57441;SDS011;43284;47.042;15.498;2023-04-25T01:41:31;5.45;;;3.22;;
57441;SDS011;43284;47.042;15.498;2023-04-25T01:43:57;7.20;;;3.38;;
57441;SDS011;43284;47.042;15.498;2023-04-25T01:46:23;5.05;;;3.47;;
57441;SDS011;43284;47.042;15.498;2023-04-25T01:48:49;7.63;;;3.70;;
57441;SDS011;43284;47.042;15.498;2023-04-25T01:51:14;6.03;;;3.20;;
57441;SDS011;43284;47.042;15.498;2023-04-25T01:53:40;6.05;;;3.00;;
57441;SDS011;43284;47.042;15.498;2023-04-25T01:56:06;3.83;;;2.75;;
57441;SDS011;43284;47.042;15.498;2023-04-25T01:58:32;5.25;;;3.13;;
57441;SDS011;43284;47.042;15.498;2023-04-25T02:00:57;5.57;;;3.40;;
57441;SDS011;43284;47.042;15.498;2023-04-25T02:03:23;4.57;;;3.47;;
57441;SDS011;43284;47.042;15.498;2023-04-25T02:05:49;5.63;;;3.17;;
57441;SDS011;43284;47.042;15.498;2023-04-25T02:08:16;5.40;;;3.05;;
57441;SDS011;43284;47.042;15.498;2023-04-25T02:10:42;4.68;;;3.30;;
57441;SDS011;43284;47.042;15.498;2023-04-25T02:13:08;6.68;;;3.50;;
57441;SDS011;43284;47.042;15.498;2023-04-25T02:15:33;5.97;;;3.47;;
57441;SDS011;43284;47.042;15.498;2023-04-25T02:17:59;6.22;;;3.42;;
57441;SDS011;43284;47.042;15.498;2023-04-25T02:20:28;5.03;;;3.30;;
57441;SDS011;43284;47.042;15.498;2023-04-25T02:22:55;5.68;;;3.83;;
57441;SDS011;43284;47.042;15.498;2023-04-25T02:25:20;7.95;;;3.63;;
57441;SDS011;43284;47.042;15.498;2023-04-25T02:27:47;6.20;;;3.20;;
57441;SDS011;43284;47.042;15.498;2023-04-25T02:30:13;8.98;;;3.55;;
57441;SDS011;43284;47.042;15.498;2023-04-25T02:32:39;6.85;;;3.10;;
57441;SDS011;43284;47.042;15.498;2023-04-25T02:35:05;5.03;;;3.30;;
57441;SDS011;43284;47.042;15.498;2023-04-25T02:37:32;11.00;;;3.72;;
57441;SDS011;43284;47.042;15.498;2023-04-25T02:39:59;6.60;;;3.38;;
57441;SDS011;43284;47.042;15.498;2023-04-25T02:42:24;6.75;;;3.88;;
57441;SDS011;43284;47.042;15.498;2023-04-25T02:44:51;9.10;;;3.53;;
57441;SDS011;43284;47.042;15.498;2023-04-25T02:47:16;5.35;;;3.10;;
57441;SDS011;43284;47.042;15.498;2023-04-25T02:49:44;6.55;;;3.00;;
57441;SDS011;43284;47.042;15.498;2023-04-25T02:52:10;6.80;;;3.33;;
57441;SDS011;43284;47.042;15.498;2023-04-25T02:54:36;6.80;;;4.25;;
57441;SDS011;43284;47.042;15.498;2023-04-25T02:57:01;4.97;;;3.05;;
57441;SDS011;43284;47.042;15.498;2023-04-25T02:59:27;6.75;;;3.13;;
57441;SDS011;43284;47.042;15.498;2023-04-25T03:01:53;4.75;;;2.95;;
57441;SDS011;43284;47.042;15.498;2023-04-25T03:04:18;6.20;;;3.05;;
57441;SDS011;43284;47.042;15.498;2023-04-25T03:06:44;4.22;;;2.97;;
57441;SDS011;43284;47.042;15.498;2023-04-25T03:09:10;4.07;;;2.75;;
57441;SDS011;43284;47.042;15.498;2023-04-25T03:11:36;5.57;;;2.97;;
57441;SDS011;43284;47.042;15.498;2023-04-25T03:14:03;7.75;;;3.38;;
57441;SDS011;43284;47.042;15.498;2023-04-25T03:16:29;4.93;;;3.20;;
57441;SDS011;43284;47.042;15.498;2023-04-25T03:18:56;8.40;;;4.05;;
57441;SDS011;43284;47.042;15.498;2023-04-25T03:21:21;6.10;;;3.22;;
57441;SDS011;43284;47.042;15.498;2023-04-25T03:23:47;5.57;;;3.20;;
57441;SDS011;43284;47.042;15.498;2023-04-25T03:26:12;4.78;;;3.05;;
57441;SDS011;43284;47.042;15.498;2023-04-25T03:28:38;7.53;;;3.55;;
57441;SDS011;43284;47.042;15.498;2023-04-25T03:31:05;8.30;;;3.47;;
57441;SDS011;43284;47.042;15.498;2023-04-25T03:33:31;6.15;;;3.90;;
57441;SDS011;43284;47.042;15.498;2023-04-25T03:35:58;22.02;;;5.18;;
57441;SDS011;43284;47.042;15.498;2023-04-25T03:38:24;22.40;;;5.05;;
57441;SDS011;43284;47.042;15.498;2023-04-25T03:40:50;33.80;;;5.57;;
57441;SDS011;43284;47.042;15.498;2023-04-25T03:43:17;22.45;;;5.07;;
57441;SDS011;43284;47.042;15.498;2023-04-25T03:45:42;21.23;;;5.88;;
57441;SDS011;43284;47.042;15.498;2023-04-25T03:48:08;23.85;;;5.45;;
57441;SDS011;43284;47.042;15.498;2023-04-25T03:50:34;59.58;;;19.10;;
57441;SDS011;43284;47.042;15.498;2023-04-25T03:53:00;37.28;;;10.25;;
57441;SDS011;43284;47.042;15.498;2023-04-25T03:55:25;24.67;;;7.75;;
57441;SDS011;43284;47.042;15.498;2023-04-25T03:57:51;17.65;;;6.35;;
57441;SDS011;43284;47.042;15.498;2023-04-25T04:00:16;14.27;;;5.80;;
57441;SDS011;43284;47.042;15.498;2023-04-25T04:02:42;30.45;;;6.15;;
57441;SDS011;43284;47.042;15.498;2023-04-25T04:05:07;29.25;;;6.95;;
57441;SDS011;43284;47.042;15.498;2023-04-25T04:07:33;31.38;;;6.85;;
57441;SDS011;43284;47.042;15.498;2023-04-25T04:10:04;33.63;;;7.13;;
57441;SDS011;43284;47.042;15.498;2023-04-25T04:12:31;57.78;;;5.68;;
57441;SDS011;43284;47.042;15.498;2023-04-25T04:14:56;40.95;;;5.85;;
57441;SDS011;43284;47.042;15.498;2023-04-25T04:17:22;40.00;;;6.70;;
57441;SDS011;43284;47.042;15.498;2023-04-25T04:19:47;34.17;;;5.65;;
57441;SDS011;43284;47.042;15.498;2023-04-25T04:22:13;40.22;;;5.90;;
57441;SDS011;43284;47.042;15.498;2023-04-25T04:24:39;28.35;;;6.22;;
57441;SDS011;43284;47.042;15.498;2023-04-25T04:27:04;25.70;;;5.15;;
57441;SDS011;43284;47.042;15.498;2023-04-25T04:29:30;23.63;;;6.18;;
57441;SDS011;43284;47.042;15.498;2023-04-25T04:31:56;31.90;;;5.78;;
57441;SDS011;43284;47.042;15.498;2023-04-25T04:34:21;20.45;;;5.32;;
57441;SDS011;43284;47.042;15.498;2023-04-25T04:36:49;10.20;;;4.55;;
57441;SDS011;43284;47.042;15.498;2023-04-25T04:39:14;12.77;;;4.75;;
57441;SDS011;43284;47.042;15.498;2023-04-25T04:41:40;19.08;;;4.20;;
57441;SDS011;43284;47.042;15.498;2023-04-25T04:44:05;19.15;;;5.18;;
57441;SDS011;43284;47.042;15.498;2023-04-25T04:46:35;21.10;;;4.82;;
57441;SDS011;43284;47.042;15.498;2023-04-25T04:49:04;17.42;;;4.43;;
57441;SDS011;43284;47.042;15.498;2023-04-25T04:51:30;19.50;;;4.95;;
57441;SDS011;43284;47.042;15.498;2023-04-25T04:53:56;15.93;;;4.72;;
57441;SDS011;43284;47.042;15.498;2023-04-25T04:56:23;18.05;;;4.93;;
57441;SDS011;43284;47.042;15.498;2023-04-25T04:58:53;15.27;;;5.88;;
57441;SDS011;43284;47.042;15.498;2023-04-25T05:01:18;15.40;;;6.25;;
57441;SDS011;43284;47.042;15.498;2023-04-25T05:03:44;10.30;;;5.50;;
57441;SDS011;43284;47.042;15.498;2023-04-25T05:06:09;16.92;;;5.57;;
57441;SDS011;43284;47.042;15.498;2023-04-25T05:08:35;26.38;;;7.20;;
57441;SDS011;43284;47.042;15.498;2023-04-25T05:11:01;37.10;;;8.00;;
57441;SDS011;43284;47.042;15.498;2023-04-25T05:13:27;18.90;;;7.25;;
57441;SDS011;43284;47.042;15.498;2023-04-25T05:15:52;18.60;;;7.13;;
57441;SDS011;43284;47.042;15.498;2023-04-25T05:18:18;16.27;;;6.75;;
57441;SDS011;43284;47.042;15.498;2023-04-25T05:20:43;16.52;;;6.53;;
57441;SDS011;43284;47.042;15.498;2023-04-25T05:23:09;11.05;;;6.22;;
57441;SDS011;43284;47.042;15.498;2023-04-25T05:25:35;14.20;;;5.88;;
57441;SDS011;43284;47.042;15.498;2023-04-25T05:28:00;27.20;;;5.93;;
57441;SDS011;43284;47.042;15.498;2023-04-25T05:30:26;22.70;;;5.95;;
57441;SDS011;43284;47.042;15.498;2023-04-25T05:32:51;23.02;;;6.25;;
57441;SDS011;43284;47.042;15.498;2023-04-25T05:35:17;33.47;;;6.03;;
57441;SDS011;43284;47.042;15.498;2023-04-25T05:37:42;19.58;;;5.50;;
57441;SDS011;43284;47.042;15.498;2023-04-25T05:40:08;19.67;;;6.25;;
57441;SDS011;43284;47.042;15.498;2023-04-25T05:42:34;21.13;;;5.72;;
57441;SDS011;43284;47.042;15.498;2023-04-25T05:45:00;10.93;;;5.40;;
57441;SDS011;43284;47.042;15.498;2023-04-25T05:47:25;11.93;;;6.00;;
57441;SDS011;43284;47.042;15.498;2023-04-25T05:49:51;20.42;;;5.72;;
57441;SDS011;43284;47.042;15.498;2023-04-25T05:52:17;33.55;;;6.32;;
57441;SDS011;43284;47.042;15.498;2023-04-25T05:54:42;21.95;;;6.03;;
57441;SDS011;43284;47.042;15.498;2023-04-25T05:57:08;17.58;;;5.90;;
57441;SDS011;43284;47.042;15.498;2023-04-25T05:59:33;17.23;;;5.70;;
57441;SDS011;43284;47.042;15.498;2023-04-25T06:01:59;10.73;;;6.32;;
57441;SDS011;43284;47.042;15.498;2023-04-25T06:04:25;14.15;;;5.93;;
57441;SDS011;43284;47.042;15.498;2023-04-25T06:06:51;15.55;;;6.97;;
57441;SDS011;43284;47.042;15.498;2023-04-25T06:09:16;16.23;;;7.68;;
57441;SDS011;43284;47.042;15.498;2023-04-25T06:11:42;21.70;;;7.78;;
57441;SDS011;43284;47.042;15.498;2023-04-25T06:14:07;15.80;;;7.25;;
57441;SDS011;43284;47.042;15.498;2023-04-25T06:16:33;16.73;;;7.80;;
57441;SDS011;43284;47.042;15.498;2023-04-25T06:18:58;82.88;;;10.82;;
57441;SDS011;43284;47.042;15.498;2023-04-25T06:21:24;17.02;;;8.80;;
57441;SDS011;43284;47.042;15.498;2023-04-25T06:23:49;17.88;;;9.63;;
57441;SDS011;43284;47.042;15.498;2023-04-25T06:26:15;16.13;;;8.43;;
57441;SDS011;43284;47.042;15.498;2023-04-25T06:28:40;15.73;;;8.88;;
57441;SDS011;43284;47.042;15.498;2023-04-25T06:31:06;17.38;;;9.57;;
57441;SDS011;43284;47.042;15.498;2023-04-25T06:33:31;15.48;;;9.48;;
57441;SDS011;43284;47.042;15.498;2023-04-25T06:35:57;15.65;;;8.57;;
57441;SDS011;43284;47.042;15.498;2023-04-25T06:38:22;15.70;;;8.43;;
57441;SDS011;43284;47.042;15.498;2023-04-25T06:40:48;16.98;;;8.35;;
57441;SDS011;43284;47.042;15.498;2023-04-25T06:43:13;13.73;;;7.80;;
57441;SDS011;43284;47.042;15.498;2023-04-25T06:45:39;14.75;;;7.22;;
57441;SDS011;43284;47.042;15.498;2023-04-25T06:48:04;13.55;;;6.70;;
57441;SDS011;43284;47.042;15.498;2023-04-25T06:50:30;10.45;;;6.38;;
57441;SDS011;43284;47.042;15.498;2023-04-25T06:52:55;13.15;;;7.28;;
57441;SDS011;43284;47.042;15.498;2023-04-25T06:55:21;15.75;;;8.20;;
57441;SDS011;43284;47.042;15.498;2023-04-25T06:57:46;10.60;;;6.68;;
57441;SDS011;43284;47.042;15.498;2023-04-25T07:00:12;11.60;;;6.97;;
57441;SDS011;43284;47.042;15.498;2023-04-25T07:02:38;19.27;;;7.47;;
57441;SDS011;43284;47.042;15.498;2023-04-25T07:05:03;9.18;;;5.90;;
57441;SDS011;43284;47.042;15.498;2023-04-25T07:07:29;15.40;;;6.65;;
57441;SDS011;43284;47.042;15.498;2023-04-25T07:09:55;8.98;;;5.65;;
57441;SDS011;43284;47.042;15.498;2023-04-25T07:12:21;10.45;;;6.82;;
57441;SDS011;43284;47.042;15.498;2023-04-25T07:14:47;12.40;;;6.72;;
57441;SDS011;43284;47.042;15.498;2023-04-25T07:17:12;11.82;;;6.30;;
57441;SDS011;43284;47.042;15.498;2023-04-25T07:19:38;12.52;;;5.82;;
57441;SDS011;43284;47.042;15.498;2023-04-25T07:22:05;7.88;;;5.57;;
57441;SDS011;43284;47.042;15.498;2023-04-25T07:24:31;8.50;;;4.63;;
57441;SDS011;43284;47.042;15.498;2023-04-25T07:26:57;8.57;;;5.13;;
57441;SDS011;43284;47.042;15.498;2023-04-25T07:29:23;9.95;;;4.10;;
57441;SDS011;43284;47.042;15.498;2023-04-25T07:31:49;6.68;;;4.05;;
57441;SDS011;43284;47.042;15.498;2023-04-25T07:34:14;7.10;;;3.50;;
57441;SDS011;43284;47.042;15.498;2023-04-25T07:36:40;7.00;;;3.85;;
57441;SDS011;43284;47.042;15.498;2023-04-25T07:39:06;8.35;;;3.80;;
57441;SDS011;43284;47.042;15.498;2023-04-25T07:41:34;6.72;;;2.80;;
57441;SDS011;43284;47.042;15.498;2023-04-25T07:43:59;6.22;;;3.03;;
57441;SDS011;43284;47.042;15.498;2023-04-25T07:46:25;5.03;;;2.80;;
57441;SDS011;43284;47.042;15.498;2023-04-25T07:48:50;3.40;;;2.42;;
57441;SDS011;43284;47.042;15.498;2023-04-25T07:51:16;3.83;;;2.30;;
57441;SDS011;43284;47.042;15.498;2023-04-25T07:53:44;9.82;;;3.13;;
57441;SDS011;43284;47.042;15.498;2023-04-25T07:56:10;4.85;;;3.13;;
57441;SDS011;43284;47.042;15.498;2023-04-25T07:58:36;5.20;;;1.80;;
57441;SDS011;43284;47.042;15.498;2023-04-25T08:01:01;2.15;;;1.35;;
57441;SDS011;43284;47.042;15.498;2023-04-25T08:03:27;2.28;;;1.52;;
57441;SDS011;43284;47.042;15.498;2023-04-25T08:05:52;2.75;;;1.90;;
57441;SDS011;43284;47.042;15.498;2023-04-25T08:08:18;3.88;;;1.50;;
57441;SDS011;43284;47.042;15.498;2023-04-25T08:10:43;2.08;;;0.88;;
57441;SDS011;43284;47.042;15.498;2023-04-25T08:13:09;3.70;;;1.13;;
57441;SDS011;43284;47.042;15.498;2023-04-25T08:15:34;1.52;;;1.02;;
57441;SDS011;43284;47.042;15.498;2023-04-25T08:18:00;3.08;;;0.70;;
57441;SDS011;43284;47.042;15.498;2023-04-25T08:20:25;4.43;;;1.63;;
57441;SDS011;43284;47.042;15.498;2023-04-25T08:22:51;1.48;;;0.90;;
57441;SDS011;43284;47.042;15.498;2023-04-25T08:25:16;3.05;;;0.90;;
57441;SDS011;43284;47.042;15.498;2023-04-25T08:27:42;1.92;;;0.85;;
57441;SDS011;43284;47.042;15.498;2023-04-25T08:30:08;4.05;;;1.00;;
57441;SDS011;43284;47.042;15.498;2023-04-25T08:32:34;2.15;;;0.80;;
57441;SDS011;43284;47.042;15.498;2023-04-25T08:34:59;2.47;;;1.20;;
57441;SDS011;43284;47.042;15.498;2023-04-25T08:37:25;3.65;;;1.15;;
57441;SDS011;43284;47.042;15.498;2023-04-25T08:39:50;2.13;;;0.93;;
57441;SDS011;43284;47.042;15.498;2023-04-25T08:42:20;2.28;;;0.98;;
57441;SDS011;43284;47.042;15.498;2023-04-25T08:44:48;1.73;;;0.88;;
57441;SDS011;43284;47.042;15.498;2023-04-25T08:47:13;2.17;;;0.90;;
57441;SDS011;43284;47.042;15.498;2023-04-25T08:49:39;1.13;;;0.82;;
57441;SDS011;43284;47.042;15.498;2023-04-25T08:52:09;3.00;;;1.02;;
57441;SDS011;43284;47.042;15.498;2023-04-25T08:54:37;3.45;;;0.90;;
57441;SDS011;43284;47.042;15.498;2023-04-25T08:57:09;3.42;;;1.00;;
57441;SDS011;43284;47.042;15.498;2023-04-25T08:59:35;3.92;;;0.93;;
57441;SDS011;43284;47.042;15.498;2023-04-25T09:02:02;1.50;;;0.98;;
57441;SDS011;43284;47.042;15.498;2023-04-25T09:04:30;2.50;;;1.00;;
57441;SDS011;43284;47.042;15.498;2023-04-25T09:06:56;3.10;;;1.02;;
57441;SDS011;43284;47.042;15.498;2023-04-25T09:09:22;1.75;;;1.02;;
57441;SDS011;43284;47.042;15.498;2023-04-25T09:11:49;1.83;;;1.10;;
57441;SDS011;43284;47.042;15.498;2023-04-25T09:14:22;2.78;;;0.80;;
57441;SDS011;43284;47.042;15.498;2023-04-25T09:17:07;3.42;;;0.98;;
57441;SDS011;43284;47.042;15.498;2023-04-25T09:19:34;1.85;;;1.00;;
57441;SDS011;43284;47.042;15.498;2023-04-25T09:22:03;1.90;;;0.98;;
57441;SDS011;43284;47.042;15.498;2023-04-25T09:24:33;1.58;;;1.00;;
57441;SDS011;43284;47.042;15.498;2023-04-25T09:27:03;1.50;;;0.93;;
57441;SDS011;43284;47.042;15.498;2023-04-25T09:29:30;1.75;;;1.00;;
57441;SDS011;43284;47.042;15.498;2023-04-25T09:34:49;2.88;;;1.10;;
57441;SDS011;43284;47.042;15.498;2023-04-25T09:39:49;3.30;;;1.00;;
57441;SDS011;43284;47.042;15.498;2023-04-25T09:42:16;3.00;;;0.90;;
57441;SDS011;43284;47.042;15.498;2023-04-25T09:44:46;1.55;;;0.75;;
57441;SDS011;43284;47.042;15.498;2023-04-25T09:47:13;3.35;;;1.00;;
57441;SDS011;43284;47.042;15.498;2023-04-25T09:49:40;2.13;;;1.00;;
57441;SDS011;43284;47.042;15.498;2023-04-25T09:52:08;2.90;;;0.90;;
57441;SDS011;43284;47.042;15.498;2023-04-25T09:54:34;2.22;;;0.80;;
57441;SDS011;43284;47.042;15.498;2023-04-25T09:57:05;1.48;;;0.90;;
57441;SDS011;43284;47.042;15.498;2023-04-25T09:59:39;2.15;;;0.73;;
57441;SDS011;43284;47.042;15.498;2023-04-25T10:02:08;1.50;;;0.73;;
57441;SDS011;43284;47.042;15.498;2023-04-25T10:04:35;1.10;;;0.95;;
57441;SDS011;43284;47.042;15.498;2023-04-25T10:07:04;2.30;;;0.73;;
57441;SDS011;43284;47.042;15.498;2023-04-25T10:09:31;1.05;;;0.80;;
57441;SDS011;43284;47.042;15.498;2023-04-25T10:12:00;1.60;;;0.90;;
57441;SDS011;43284;47.042;15.498;2023-04-25T10:14:26;1.15;;;0.85;;
57441;SDS011;43284;47.042;15.498;2023-04-25T10:16:53;2.03;;;0.77;;
57441;SDS011;43284;47.042;15.498;2023-04-25T10:19:21;1.02;;;0.80;;
57441;SDS011;43284;47.042;15.498;2023-04-25T10:21:59;1.23;;;0.80;;
57441;SDS011;43284;47.042;15.498;2023-04-25T10:24:31;1.80;;;0.93;;
57441;SDS011;43284;47.042;15.498;2023-04-25T10:26:57;2.53;;;0.82;;
57441;SDS011;43284;47.042;15.498;2023-04-25T10:29:24;1.77;;;1.10;;
57441;SDS011;43284;47.042;15.498;2023-04-25T10:31:50;0.98;;;0.80;;
57441;SDS011;43284;47.042;15.498;2023-04-25T10:34:16;1.70;;;0.70;;
57441;SDS011;43284;47.042;15.498;2023-04-25T10:36:43;1.10;;;0.80;;
57441;SDS011;43284;47.042;15.498;2023-04-25T10:39:20;1.35;;;0.75;;
57441;SDS011;43284;47.042;15.498;2023-04-25T10:41:56;1.80;;;0.90;;
57441;SDS011;43284;47.042;15.498;2023-04-25T10:44:23;3.92;;;1.02;;
57441;SDS011;43284;47.042;15.498;2023-04-25T10:46:51;1.48;;;0.63;;
57441;SDS011;43284;47.042;15.498;2023-04-25T10:49:31;0.90;;;0.88;;
57441;SDS011;43284;47.042;15.498;2023-04-25T10:52:11;1.30;;;0.77;;
57441;SDS011;43284;47.042;15.498;2023-04-25T10:55:03;1.20;;;0.90;;
57441;SDS011;43284;47.042;15.498;2023-04-25T10:57:49;1.10;;;0.90;;
57441;SDS011;43284;47.042;15.498;2023-04-25T11:00:19;1.60;;;0.88;;
57441;SDS011;43284;47.042;15.498;2023-04-25T11:02:48;1.88;;;0.93;;
57441;SDS011;43284;47.042;15.498;2023-04-25T11:05:34;3.65;;;1.10;;
57441;SDS011;43284;47.042;15.498;2023-04-25T11:08:01;1.33;;;1.00;;
57441;SDS011;43284;47.042;15.498;2023-04-25T11:10:29;2.00;;;1.05;;
57441;SDS011;43284;47.042;15.498;2023-04-25T11:12:58;1.20;;;0.88;;
57441;SDS011;43284;47.042;15.498;2023-04-25T11:15:24;1.17;;;0.82;;
57441;SDS011;43284;47.042;15.498;2023-04-25T11:17:53;2.05;;;0.98;;
57441;SDS011;43284;47.042;15.498;2023-04-25T11:20:20;4.90;;;1.00;;
57441;SDS011;43284;47.042;15.498;2023-04-25T11:22:46;3.13;;;0.95;;
57441;SDS011;43284;47.042;15.498;2023-04-25T11:25:12;3.50;;;0.98;;
57441;SDS011;43284;47.042;15.498;2023-04-25T11:27:52;0.60;;;0.60;;
57441;SDS011;43284;47.042;15.498;2023-04-25T11:30:18;1.02;;;0.80;;
57441;SDS011;43284;47.042;15.498;2023-04-25T11:32:45;1.58;;;1.00;;
57441;SDS011;43284;47.042;15.498;2023-04-25T11:35:11;2.58;;;1.17;;
57441;SDS011;43284;47.042;15.498;2023-04-25T11:37:40;1.42;;;1.02;;
57441;SDS011;43284;47.042;15.498;2023-04-25T11:40:07;1.33;;;0.90;;
57441;SDS011;43284;47.042;15.498;2023-04-25T11:42:36;4.43;;;1.38;;
57441;SDS011;43284;47.042;15.498;2023-04-25T11:45:03;1.40;;;0.93;;
57441;SDS011;43284;47.042;15.498;2023-04-25T11:47:30;3.28;;;1.10;;
57441;SDS011;43284;47.042;15.498;2023-04-25T11:49:59;1.88;;;1.00;;
57441;SDS011;43284;47.042;15.498;2023-04-25T11:55:08;1.02;;;0.75;;
57441;SDS011;43284;47.042;15.498;2023-04-25T11:57:38;1.35;;;0.98;;
57441;SDS011;43284;47.042;15.498;2023-04-25T12:00:27;2.17;;;1.02;;
57441;SDS011;43284;47.042;15.498;2023-04-25T12:02:52;1.55;;;0.80;;
57441;SDS011;43284;47.042;15.498;2023-04-25T12:05:19;2.58;;;0.85;;
57441;SDS011;43284;47.042;15.498;2023-04-25T12:07:48;1.85;;;1.20;;
57441;SDS011;43284;47.042;15.498;2023-04-25T12:10:14;1.33;;;0.80;;
57441;SDS011;43284;47.042;15.498;2023-04-25T12:12:41;1.00;;;0.80;;
57441;SDS011;43284;47.042;15.498;2023-04-25T12:15:14;1.75;;;0.73;;
57441;SDS011;43284;47.042;15.498;2023-04-25T12:17:49;0.80;;;0.55;;
57441;SDS011;43284;47.042;15.498;2023-04-25T12:20:20;1.48;;;0.82;;
57441;SDS011;43284;47.042;15.498;2023-04-25T12:22:48;4.32;;;1.00;;
57441;SDS011;43284;47.042;15.498;2023-04-25T12:25:34;1.08;;;0.85;;
57441;SDS011;43284;47.042;15.498;2023-04-25T12:33:26;3.42;;;1.02;;
57441;SDS011;43284;47.042;15.498;2023-04-25T12:35:54;2.05;;;1.15;;
57441;SDS011;43284;47.042;15.498;2023-04-25T12:38:29;1.80;;;0.85;;
57441;SDS011;43284;47.042;15.498;2023-04-25T12:40:56;2.88;;;0.80;;
57441;SDS011;43284;47.042;15.498;2023-04-25T12:43:23;2.22;;;0.88;;
57441;SDS011;43284;47.042;15.498;2023-04-25T12:45:49;5.05;;;0.85;;
57441;SDS011;43284;47.042;15.498;2023-04-25T12:48:19;4.95;;;0.90;;
57441;SDS011;43284;47.042;15.498;2023-04-25T12:50:46;3.63;;;0.98;;
57441;SDS011;43284;47.042;15.498;2023-04-25T12:53:14;1.65;;;0.70;;
57441;SDS011;43284;47.042;15.498;2023-04-25T12:55:43;3.70;;;1.00;;
57441;SDS011;43284;47.042;15.498;2023-04-25T12:58:16;3.58;;;1.13;;
57441;SDS011;43284;47.042;15.498;2023-04-25T13:00:43;5.10;;;1.30;;
57441;SDS011;43284;47.042;15.498;2023-04-25T13:03:10;2.13;;;0.93;;
57441;SDS011;43284;47.042;15.498;2023-04-25T13:05:38;1.48;;;0.82;;
57441;SDS011;43284;47.042;15.498;2023-04-25T13:08:04;4.43;;;0.93;;
57441;SDS011;43284;47.042;15.498;2023-04-25T13:10:30;1.90;;;1.05;;
57441;SDS011;43284;47.042;15.498;2023-04-25T13:12:56;2.25;;;0.82;;
57441;SDS011;43284;47.042;15.498;2023-04-25T13:15:22;1.83;;;0.98;;
57441;SDS011;43284;47.042;15.498;2023-04-25T13:17:48;1.00;;;0.73;;
57441;SDS011;43284;47.042;15.498;2023-04-25T13:20:13;2.88;;;0.70;;
57441;SDS011;43284;47.042;15.498;2023-04-25T13:22:42;2.40;;;1.00;;
57441;SDS011;43284;47.042;15.498;2023-04-25T13:25:10;1.27;;;0.70;;
57441;SDS011;43284;47.042;15.498;2023-04-25T13:27:37;1.73;;;0.60;;
57441;SDS011;43284;47.042;15.498;2023-04-25T13:30:05;1.45;;;0.70;;
57441;SDS011;43284;47.042;15.498;2023-04-25T13:32:34;2.85;;;0.85;;
57441;SDS011;43284;47.042;15.498;2023-04-25T13:35:04;1.63;;;0.65;;
57441;SDS011;43284;47.042;15.498;2023-04-25T13:37:31;1.50;;;0.70;;
57441;SDS011;43284;47.042;15.498;2023-04-25T13:39:58;1.55;;;0.73;;
57441;SDS011;43284;47.042;15.498;2023-04-25T13:42:25;3.33;;;0.80;;
57441;SDS011;43284;47.042;15.498;2023-04-25T13:44:51;2.28;;;0.90;;
57441;SDS011;43284;47.042;15.498;2023-04-25T13:47:16;4.65;;;0.70;;
57441;SDS011;43284;47.042;15.498;2023-04-25T13:49:42;0.98;;;0.65;;
57441;SDS011;43284;47.042;15.498;2023-04-25T13:52:07;3.15;;;0.80;;
57441;SDS011;43284;47.042;15.498;2023-04-25T13:54:33;0.55;;;0.55;;
57441;SDS011;43284;47.042;15.498;2023-04-25T13:56:58;1.52;;;0.80;;
57441;SDS011;43284;47.042;15.498;2023-04-25T13:59:25;1.15;;;0.88;;
57441;SDS011;43284;47.042;15.498;2023-04-25T14:01:52;2.08;;;0.90;;
57441;SDS011;43284;47.042;15.498;2023-04-25T14:04:17;0.85;;;0.70;;
57441;SDS011;43284;47.042;15.498;2023-04-25T14:06:43;1.60;;;0.55;;
57441;SDS011;43284;47.042;15.498;2023-04-25T14:09:08;1.88;;;1.02;;
57441;SDS011;43284;47.042;15.498;2023-04-25T14:11:38;1.23;;;0.70;;
57441;SDS011;43284;47.042;15.498;2023-04-25T14:14:04;2.80;;;1.20;;
57441;SDS011;43284;47.042;15.498;2023-04-25T14:16:30;1.25;;;0.77;;
57441;SDS011;43284;47.042;15.498;2023-04-25T14:18:57;3.40;;;1.20;;
57441;SDS011;43284;47.042;15.498;2023-04-25T14:21:23;1.48;;;0.90;;
57441;SDS011;43284;47.042;15.498;2023-04-25T14:23:49;3.13;;;0.90;;
57441;SDS011;43284;47.042;15.498;2023-04-25T14:26:14;5.78;;;1.00;;
57441;SDS011;43284;47.042;15.498;2023-04-25T14:28:41;3.63;;;0.82;;
57441;SDS011;43284;47.042;15.498;2023-04-25T14:31:07;2.58;;;1.00;;
57441;SDS011;43284;47.042;15.498;2023-04-25T14:33:32;3.05;;;0.90;;
57441;SDS011;43284;47.042;15.498;2023-04-25T14:35:58;1.38;;;0.70;;
57441;SDS011;43284;47.042;15.498;2023-04-25T14:38:23;5.85;;;1.63;;
57441;SDS011;43284;47.042;15.498;2023-04-25T14:40:50;1.60;;;0.80;;
57441;SDS011;43284;47.042;15.498;2023-04-25T14:43:16;0.88;;;0.85;;